KBLI/BLI METAR and TAF weather

Enter ICAO airport designator
Station Type Date Time Source
KBLI METAR 2020/01/22 12:16 UTC NOAA

KBLI 221216Z AUTO 18010KT 10SM BKN025 BKN032 OVC042 08/04 A2995 RMK AO2 RAB1154E05 P0000 T00780044


Station Type Date Time Source
KBLI Decoded METAR 2020/01/22 12:16 UTC NOAA

BELLINGHAM INTERNATIONAL AIRPORT, WA, United States (KBLI) 48-48N 122-32W 50M
Jan 22, 2020 - 07:16 AM EST / 2020.01.22 1216 UTC
Wind: from the S (180 degrees) at 12 MPH (10 KT):0
Visibility: 10 mile(s):0
Sky conditions: overcast
Precipitation last hour: A trace
Temperature: 46.0 F (7.8 C)
Dew Point: 39.9 F (4.4 C)
Relative Humidity: 79%
Pressure (altimeter): 29.95 in. Hg (1014 hPa)
ob: KBLI 221216Z AUTO 18010KT 10SM BKN025 BKN032 OVC042 08/04 A2995 RMK AO2 RAB1154E05 P0000 T00780044
cycle: 12

Station Type Date Time Source
KBLI TAF 2020/01/22 12:30 UTC NOAA

TAF KBLI 221128Z 2212/2312 17012G19KT P6SM -SHRA SCT015 BKN020 OVC070
FM221500 15012G19KT P6SM SCT020 OVC025
FM221900 12012KT P6SM -RA OVC020
FM222300 09012G18KT 5SM -RA BR OVC020
FM230400 14012G22KT 4SM -RA BR OVC015

Example: see airport list